Time;durP1;ratioP1;P1;durP2;ratioP2;P2;SDS_P1;SDS_P2;PMS_P1;PMS_P2;Temp;Humidity;BMP_temperature;BMP_pressure;BME280_temperature;BME280_humidity;BME280_pressure;Samples;Min_cycle;Max_cycle;Signal;HPM_P1;HPM_P2
2021/03/02 00:00:23;;;;;;;6.85;5.50;;;3.60;99.90;;;;;;5074412;28;20168;-77
2021/03/02 00:02:49;;;;;;;7.82;5.63;;;3.70;99.90;;;;;;5106836;28;20573;-77
2021/03/02 00:05:15;;;;;;;10.02;5.03;;;3.80;99.90;;;;;;5074333;28;20597;-77
2021/03/02 00:07:41;;;;;;;7.27;5.17;;;3.90;99.90;;;;;;5073855;28;20239;-76
2021/03/02 00:10:09;;;;;;;11.25;4.60;;;4.00;99.90;;;;;;5074247;28;20977;-77
2021/03/02 00:12:36;;;;;;;6.60;4.93;;;4.10;99.90;;;;;;5074177;28;20186;-76
2021/03/02 00:15:03;;;;;;;7.05;5.78;;;4.10;99.90;;;;;;5073722;28;20211;-77
2021/03/02 00:17:42;;;;;;;6.88;5.28;;;4.10;99.90;;;;;;5073685;28;20195;-77
2021/03/02 00:20:10;;;;;;;7.25;4.32;;;4.20;99.90;;;;;;5074485;28;20708;-77
2021/03/02 00:22:56;;;;;;;5.20;4.05;;;4.40;99.90;;;;;;5073875;28;20210;-77
2021/03/02 00:25:25;;;;;;;7.90;4.68;;;4.40;99.90;;;;;;5063096;28;20283;-77
2021/03/02 00:27:53;;;;;;;7.00;4.55;;;4.50;99.90;;;;;;5073510;28;20212;-75
2021/03/02 00:30:20;;;;;;;6.60;5.20;;;4.60;99.90;;;;;;5073842;28;20581;-75
2021/03/02 00:32:47;;;;;;;5.22;4.35;;;4.60;99.90;;;;;;5073969;28;20197;-75
2021/03/02 00:35:16;;;;;;;14.25;4.82;;;4.50;99.90;;;;;;5073572;28;20213;-74
2021/03/02 00:37:44;;;;;;;4.88;4.25;;;4.50;99.90;;;;;;5073616;28;20200;-76
2021/03/02 00:40:10;;;;;;;5.95;4.57;;;4.50;99.90;;;;;;5072388;28;20260;-74
2021/03/02 00:42:35;;;;;;;8.15;4.30;;;4.50;99.90;;;;;;5073857;28;20180;-75
2021/03/02 00:45:01;;;;;;;6.30;4.17;;;4.50;99.90;;;;;;5073696;28;20661;-74
2021/03/02 00:47:27;;;;;;;5.77;4.00;;;4.50;99.90;;;;;;5073282;28;20193;-76
2021/03/02 00:49:52;;;;;;;11.60;4.43;;;4.60;99.90;;;;;;5073575;28;20175;-76
2021/03/02 00:52:18;;;;;;;6.07;4.80;;;4.60;99.90;;;;;;5073576;28;20243;-78
2021/03/02 00:54:44;;;;;;;6.10;5.03;;;4.70;99.90;;;;;;5073520;28;20169;-73
2021/03/02 00:57:09;;;;;;;4.87;4.10;;;4.70;99.90;;;;;;5073021;28;20176;-78
2021/03/02 00:59:35;;;;;;;8.03;5.10;;;4.70;99.90;;;;;;5073350;28;20186;-75
2021/03/02 01:02:00;;;;;;;5.17;3.63;;;4.70;99.90;;;;;;5072916;28;20231;-76
2021/03/02 01:04:26;;;;;;;6.20;4.40;;;4.80;99.90;;;;;;5073452;28;20215;-76
2021/03/02 01:06:51;;;;;;;4.60;3.90;;;4.80;99.90;;;;;;5073328;28;20267;-76
2021/03/02 01:09:17;;;;;;;5.03;3.57;;;4.80;99.90;;;;;;5072789;28;20246;-75
2021/03/02 01:11:43;;;;;;;6.20;4.43;;;4.80;99.90;;;;;;5073263;28;20530;-75
2021/03/02 01:14:09;;;;;;;9.47;5.17;;;4.80;99.90;;;;;;5073368;28;20272;-75
2021/03/02 01:16:34;;;;;;;9.27;4.93;;;4.80;99.90;;;;;;5073237;28;20287;-74
2021/03/02 01:19:00;;;;;;;8.17;5.23;;;4.80;99.90;;;;;;5073059;28;20604;-77
2021/03/02 01:21:26;;;;;;;6.53;4.83;;;4.80;99.90;;;;;;5073261;28;20263;-75
2021/03/02 01:23:51;;;;;;;4.93;4.40;;;4.80;99.90;;;;;;5073486;28;20533;-77
2021/03/02 01:26:17;;;;;;;6.10;4.70;;;4.80;99.90;;;;;;5073445;28;20269;-77
2021/03/02 01:28:42;;;;;;;6.03;4.83;;;4.80;99.90;;;;;;5071615;28;20204;-75
2021/03/02 01:31:08;;;;;;;7.67;4.90;;;4.90;99.90;;;;;;5073174;28;20181;-75
2021/03/02 01:33:34;;;;;;;8.37;5.00;;;4.90;99.90;;;;;;5073058;28;20188;-75
2021/03/02 01:35:59;;;;;;;6.70;4.73;;;4.90;99.90;;;;;;5073210;28;20480;-77
2021/03/02 01:38:25;;;;;;;5.80;4.63;;;4.90;99.90;;;;;;5072699;28;20193;-75
2021/03/02 01:40:51;;;;;;;6.63;4.53;;;4.80;99.90;;;;;;5073324;28;20183;-77
2021/03/02 01:43:17;;;;;;;6.87;4.20;;;4.80;99.90;;;;;;5073169;28;20208;-75
2021/03/02 01:45:43;;;;;;;8.93;5.00;;;4.80;99.90;;;;;;5072942;28;20476;-76
2021/03/02 01:48:09;;;;;;;7.53;5.10;;;4.80;99.90;;;;;;5072581;28;20652;-75
2021/03/02 01:50:34;;;;;;;7.33;5.33;;;4.80;99.90;;;;;;5073165;28;20200;-76
2021/03/02 01:53:00;;;;;;;6.93;4.80;;;4.70;99.90;;;;;;5073111;28;20969;-77
2021/03/02 01:55:26;;;;;;;10.53;4.50;;;4.80;99.90;;;;;;5072872;28;20825;-75
2021/03/02 01:57:51;;;;;;;13.80;6.37;;;4.80;99.90;;;;;;5072338;28;20192;-78
2021/03/02 02:00:38;;;;;;;10.03;6.20;;;4.80;99.90;;;;;;5073082;28;20862;-74
2021/03/02 02:03:13;;;;;;;8.57;5.38;;;4.80;99.90;;;;;;5072948;28;20196;-76
2021/03/02 02:05:50;;;;;;;7.60;5.95;;;4.80;99.90;;;;;;5071701;28;20270;-76
2021/03/02 02:08:21;;;;;;;8.25;4.90;;;4.80;99.90;;;;;;5071260;28;20192;-76
2021/03/02 02:10:56;;;;;;;7.60;5.95;;;4.70;99.90;;;;;;5072857;28;20177;-75
2021/03/02 02:13:30;;;;;;;12.90;6.45;;;4.70;99.90;;;;;;5072957;28;20171;-75
2021/03/02 02:15:58;;;;;;;8.07;5.80;;;4.60;99.90;;;;;;5076369;28;20690;-76
2021/03/02 02:18:29;;;;;;;13.02;5.80;;;4.50;99.90;;;;;;5076410;28;20196;-75
2021/03/02 02:21:07;;;;;;;8.15;5.47;;;4.40;99.90;;;;;;5076691;28;20165;-76
2021/03/02 02:23:42;;;;;;;8.48;5.40;;;4.30;99.90;;;;;;5075500;28;20180;-76
2021/03/02 02:26:43;;;;;;;8.07;5.55;;;4.30;99.90;;;;;;5076301;28;20192;-76
2021/03/02 02:29:10;;;;;;;7.57;5.53;;;4.20;99.90;;;;;;5076244;28;20540;-77
2021/03/02 02:31:38;;;;;;;8.02;5.38;;;4.10;99.90;;;;;;5076270;28;20173;-77
2021/03/02 02:34:04;;;;;;;10.38;6.10;;;4.10;99.90;;;;;;5076215;28;20184;-76
2021/03/02 02:36:31;;;;;;;10.20;6.47;;;4.20;99.90;;;;;;5076106;28;20212;-75
2021/03/02 02:38:58;;;;;;;10.63;6.63;;;4.10;99.90;;;;;;5075699;28;20196;-77
2021/03/02 02:41:24;;;;;;;10.88;6.10;;;4.00;99.90;;;;;;5076273;28;20210;-77
2021/03/02 02:43:52;;;;;;;11.52;6.72;;;4.10;99.90;;;;;;5076005;28;20275;-76
2021/03/02 02:46:19;;;;;;;9.38;5.50;;;4.00;99.90;;;;;;5075821;28;20326;-76
2021/03/02 02:48:47;;;;;;;11.07;6.88;;;3.80;99.90;;;;;;5075644;28;20278;-77
2021/03/02 02:51:13;;;;;;;16.50;6.47;;;3.70;99.90;;;;;;5076005;28;20181;-75
2021/03/02 02:53:39;;;;;;;7.97;5.93;;;3.50;99.90;;;;;;5076042;28;20175;-78
2021/03/02 02:56:06;;;;;;;11.63;6.30;;;3.40;99.90;;;;;;5075713;28;20466;-76
2021/03/02 02:58:50;;;;;;;13.88;7.22;;;3.40;99.90;;;;;;5075335;28;20721;-76
2021/03/02 03:01:17;;;;;;;12.13;6.95;;;3.10;99.90;;;;;;5075870;28;20256;-77
2021/03/02 03:03:46;;;;;;;14.57;7.18;;;3.10;99.90;;;;;;5075718;28;20180;-74
2021/03/02 03:06:15;;;;;;;10.10;6.93;;;3.10;99.90;;;;;;5075609;28;20581;-77
2021/03/02 03:08:49;;;;;;;12.05;6.80;;;2.90;99.90;;;;;;5075033;28;20226;-76
2021/03/02 03:11:22;;;;;;;12.10;6.97;;;2.90;99.90;;;;;;5075845;28;20214;-75
2021/03/02 03:13:50;;;;;;;13.18;7.05;;;2.90;99.90;;;;;;5074370;28;20234;-76
2021/03/02 03:16:18;;;;;;;18.92;6.63;;;2.70;99.90;;;;;;5075419;28;20201;-77
2021/03/02 03:18:46;;;;;;;10.48;6.32;;;2.60;99.90;;;;;;5075007;28;20188;-76
2021/03/02 03:21:13;;;;;;;9.60;5.63;;;2.60;99.90;;;;;;5075332;28;20567;-76
2021/03/02 03:23:40;;;;;;;9.75;6.75;;;2.50;99.90;;;;;;5075287;28;20173;-74
2021/03/02 03:26:09;;;;;;;11.45;6.72;;;2.50;99.90;;;;;;5074802;28;20185;-76
2021/03/02 03:28:35;;;;;;;13.32;6.57;;;2.50;99.90;;;;;;5074536;28;20282;-76
2021/03/02 03:31:02;;;;;;;11.70;6.95;;;2.40;99.90;;;;;;5075127;28;20201;-77
2021/03/02 03:33:28;;;;;;;13.32;6.88;;;2.40;99.90;;;;;;5075054;28;20546;-75
2021/03/02 03:35:55;;;;;;;9.43;7.13;;;2.30;99.90;;;;;;5075007;28;20201;-77
2021/03/02 03:38:20;;;;;;;12.10;7.18;;;2.20;99.90;;;;;;5074684;28;20566;-75
2021/03/02 03:40:46;;;;;;;11.00;7.43;;;2.20;99.90;;;;;;5074912;28;20175;-77
2021/03/02 03:43:11;;;;;;;9.83;6.10;;;2.10;99.90;;;;;;5074984;28;20171;-76
2021/03/02 03:45:37;;;;;;;14.03;7.43;;;2.00;99.90;;;;;;5074754;28;20656;-76
2021/03/02 03:48:03;;;;;;;12.50;6.77;;;1.80;99.90;;;;;;5074434;28;20188;-76
2021/03/02 03:50:28;;;;;;;11.27;7.07;;;1.70;99.90;;;;;;5074742;28;20172;-74
2021/03/02 03:52:58;;;;;;;8.97;6.60;;;1.70;99.90;;;;;;5074647;28;20472;-76
2021/03/02 03:55:29;;;;;;;11.13;6.57;;;1.60;99.90;;;;;;5074654;28;20196;-76
2021/03/02 03:57:55;;;;;;;8.38;6.80;;;1.60;99.90;;;;;;5074248;28;20180;-76
2021/03/02 04:00:21;;;;;;;10.38;6.68;;;1.50;99.90;;;;;;5074628;28;20621;-76
2021/03/02 04:02:49;;;;;;;12.38;5.63;;;1.60;99.90;;;;;;5074273;28;20208;-75
2021/03/02 04:05:15;;;;;;;11.73;6.57;;;1.60;99.90;;;;;;5074315;28;20176;-75
2021/03/02 04:07:43;;;;;;;9.73;6.60;;;1.50;99.90;;;;;;5073817;28;20192;-76
2021/03/02 04:10:10;;;;;;;13.57;6.57;;;1.40;99.90;;;;;;5074409;28;20170;-76
2021/03/02 04:12:40;;;;;;;10.45;6.85;;;1.40;99.90;;;;;;5074241;28;20176;-76
2021/03/02 04:15:16;;;;;;;11.52;6.53;;;1.40;99.90;;;;;;5073894;28;20216;-76
2021/03/02 04:17:52;;;;;;;10.95;7.35;;;1.40;99.90;;;;;;5073849;28;20188;-77
2021/03/02 04:20:18;;;;;;;11.43;7.10;;;1.40;99.90;;;;;;5074065;28;20262;-76
2021/03/02 04:22:44;;;;;;;10.80;6.90;;;1.40;99.90;;;;;;5074193;28;20185;-75
2021/03/02 04:25:10;;;;;;;14.10;6.73;;;1.30;99.90;;;;;;5073772;28;20180;-76
2021/03/02 04:27:35;;;;;;;10.30;7.45;;;1.30;99.90;;;;;;5073828;28;20276;-76
2021/03/02 04:30:02;;;;;;;10.60;6.70;;;1.20;99.90;;;;;;5074026;28;20257;-75
2021/03/02 04:32:27;;;;;;;9.80;6.40;;;1.20;99.90;;;;;;5073902;28;20171;-77
2021/03/02 04:34:53;;;;;;;12.27;7.00;;;1.10;99.90;;;;;;5073713;28;20176;-76
2021/03/02 04:37:19;;;;;;;11.83;6.90;;;1.20;99.90;;;;;;5105260;28;20180;-75
2021/03/02 04:39:44;;;;;;;12.57;7.50;;;1.10;99.90;;;;;;5073750;28;20596;-75
2021/03/02 04:42:10;;;;;;;10.97;6.60;;;1.10;99.90;;;;;;5073743;28;20551;-76
2021/03/02 04:44:35;;;;;;;12.27;6.40;;;1.00;99.90;;;;;;5072409;28;20188;-76
2021/03/02 04:47:01;;;;;;;11.80;7.20;;;1.00;99.90;;;;;;5073253;28;20180;-76
2021/03/02 04:49:26;;;;;;;19.30;8.10;;;1.00;99.90;;;;;;5073756;28;20275;-76
2021/03/02 04:51:52;;;;;;;14.70;7.87;;;0.90;99.90;;;;;;5073620;28;20208;-75
2021/03/02 04:54:18;;;;;;;12.10;6.87;;;0.90;99.90;;;;;;5073867;28;20182;-74
2021/03/02 04:56:43;;;;;;;11.13;6.73;;;0.80;99.90;;;;;;5073500;28;20241;-76
2021/03/02 04:59:09;;;;;;;16.03;6.70;;;0.80;99.90;;;;;;5073044;28;20185;-76
2021/03/02 05:01:35;;;;;;;11.13;7.00;;;0.80;99.90;;;;;;5073562;28;20180;-76
2021/03/02 05:04:01;;;;;;;10.90;6.53;;;0.70;99.90;;;;;;5073586;28;20245;-76
2021/03/02 05:06:26;;;;;;;13.30;7.10;;;0.80;99.90;;;;;;5073534;28;20182;-76
2021/03/02 05:08:52;;;;;;;10.77;7.40;;;0.80;99.90;;;;;;5073019;28;20550;-76
2021/03/02 05:11:18;;;;;;;15.83;7.90;;;0.70;99.90;;;;;;5073271;28;20510;-76
2021/03/02 05:13:43;;;;;;;10.57;7.77;;;0.70;99.90;;;;;;5073245;28;20199;-76
2021/03/02 05:16:10;;;;;;;11.33;7.17;;;0.70;99.90;;;;;;5073249;28;20208;-76
2021/03/02 05:18:36;;;;;;;10.48;7.43;;;0.70;99.90;;;;;;5072986;28;20426;-76
2021/03/02 05:21:03;;;;;;;11.50;7.60;;;0.80;99.90;;;;;;5073253;28;20171;-76
2021/03/02 05:23:29;;;;;;;13.82;9.63;;;0.70;99.90;;;;;;5081301;28;20649;-77
2021/03/02 05:25:54;;;;;;;12.53;8.30;;;0.80;99.90;;;;;;5073234;28;20180;-77
2021/03/02 05:28:20;;;;;;;14.83;8.40;;;0.70;99.90;;;;;;5072729;28;20204;-76
2021/03/02 05:30:46;;;;;;;13.37;8.87;;;0.80;99.90;;;;;;5073687;28;20610;-76
2021/03/02 05:33:11;;;;;;;14.80;8.43;;;0.70;99.90;;;;;;5073224;28;20184;-76
2021/03/02 05:35:37;;;;;;;11.80;8.53;;;0.80;99.90;;;;;;5073310;28;20200;-76
2021/03/02 05:38:02;;;;;;;16.27;9.77;;;0.70;99.90;;;;;;5072954;28;20197;-77
2021/03/02 05:40:28;;;;;;;13.13;9.37;;;0.70;99.90;;;;;;5073357;28;20177;-76
2021/03/02 05:42:54;;;;;;;9.97;7.27;;;0.70;99.90;;;;;;5073335;28;20203;-76
2021/03/02 05:45:20;;;;;;;15.20;8.70;;;0.70;99.90;;;;;;5073078;28;20571;-77
2021/03/02 05:47:47;;;;;;;14.07;9.18;;;0.80;99.90;;;;;;5073617;28;20311;-77
2021/03/02 05:50:14;;;;;;;17.15;9.13;;;0.70;99.90;;;;;;5077112;28;20168;-76
2021/03/02 05:52:40;;;;;;;13.15;8.30;;;0.80;99.90;;;;;;5077041;28;20172;-77
2021/03/02 05:55:07;;;;;;;13.87;8.13;;;0.80;99.90;;;;;;5076937;28;20488;-76
2021/03/02 05:57:33;;;;;;;11.48;8.27;;;0.70;99.90;;;;;;5076280;28;20227;-76
2021/03/02 06:00:00;;;;;;;13.15;9.57;;;0.70;99.90;;;;;;5076879;28;20227;-76
2021/03/02 06:02:26;;;;;;;15.60;9.50;;;0.60;99.90;;;;;;5076947;28;20274;-77
2021/03/02 06:04:51;;;;;;;12.30;8.80;;;0.70;99.90;;;;;;5076900;28;20716;-75
2021/03/02 06:07:17;;;;;;;13.50;9.20;;;0.60;99.90;;;;;;5076636;28;20190;-76
2021/03/02 06:09:46;;;;;;;14.40;9.63;;;0.60;99.90;;;;;;5076681;28;20164;-75
2021/03/02 06:12:12;;;;;;;11.82;8.68;;;0.60;99.90;;;;;;5076581;28;20179;-76
2021/03/02 06:14:38;;;;;;;12.00;9.50;;;0.60;99.90;;;;;;5076571;28;20244;-77
2021/03/02 06:17:05;;;;;;;14.93;9.27;;;0.60;99.90;;;;;;5076116;28;20230;-76
2021/03/02 06:19:37;;;;;;;14.73;9.00;;;0.60;99.90;;;;;;5076299;28;20233;-75
2021/03/02 06:22:03;;;;;;;14.40;9.93;;;0.60;99.90;;;;;;5076300;28;20205;-76
2021/03/02 06:24:40;;;;;;;13.40;9.83;;;0.70;99.90;;;;;;5076408;28;20208;-75
2021/03/02 06:27:11;;;;;;;16.73;9.73;;;0.60;99.90;;;;;;5108659;28;20425;-75
2021/03/02 06:29:37;;;;;;;14.40;10.07;;;0.60;99.90;;;;;;5076374;28;20543;-76
2021/03/02 06:32:03;;;;;;;17.23;9.70;;;0.60;99.90;;;;;;5075982;28;20171;-75
2021/03/02 06:34:28;;;;;;;15.13;9.53;;;0.60;99.90;;;;;;5074985;28;20422;-75
2021/03/02 06:36:54;;;;;;;17.60;10.57;;;0.70;99.90;;;;;;5076174;28;20798;-76
2021/03/02 06:39:34;;;;;;;14.10;10.20;;;0.70;99.90;;;;;;5075935;28;20199;-75
2021/03/02 06:42:13;;;;;;;14.88;9.98;;;0.80;99.90;;;;;;5076185;28;20176;-77
2021/03/02 06:44:40;;;;;;;16.23;10.77;;;0.90;99.90;;;;;;5075990;28;20169;-74
2021/03/02 06:47:06;;;;;;;16.50;10.45;;;0.90;99.90;;;;;;5075757;28;20176;-75
2021/03/02 06:49:50;;;;;;;15.20;9.10;;;0.90;99.90;;;;;;5074743;28;20184;-76
2021/03/02 06:52:18;;;;;;;18.90;11.07;;;1.00;99.90;;;;;;5075843;28;20182;-77
2021/03/02 06:54:48;;;;;;;17.48;10.50;;;1.00;99.90;;;;;;5076193;28;20175;-76
2021/03/02 06:57:24;;;;;;;21.88;10.73;;;1.00;99.90;;;;;;5075397;28;20601;-76
2021/03/02 07:00:03;;;;;;;17.02;12.00;;;1.20;99.90;;;;;;5073845;28;20208;-76
2021/03/02 07:02:33;;;;;;;14.38;9.95;;;1.20;99.90;;;;;;5083936;28;20196;-76
2021/03/02 07:05:07;;;;;;;19.35;12.90;;;1.30;99.90;;;;;;5088767;28;20211;-76
2021/03/02 07:07:33;;;;;;;20.70;11.23;;;1.30;99.90;;;;;;5095337;28;20201;-76
2021/03/02 07:10:00;;;;;;;21.63;13.50;;;1.40;99.90;;;;;;5095794;28;20172;-75
2021/03/02 07:12:30;;;;;;;16.73;12.38;;;1.50;99.90;;;;;;5095604;28;20438;-77
2021/03/02 07:14:58;;;;;;;16.30;10.80;;;1.70;99.90;;;;;;5095714;28;20264;-76
2021/03/02 07:17:23;;;;;;;17.98;12.68;;;1.70;99.90;;;;;;5095337;28;20171;-75
2021/03/02 07:19:49;;;;;;;18.40;10.40;;;1.90;99.90;;;;;;5095489;28;20172;-74
2021/03/02 07:22:15;;;;;;;24.27;13.67;;;2.00;99.90;;;;;;5095304;28;20168;-77
2021/03/02 07:24:41;;;;;;;20.73;12.57;;;2.20;99.90;;;;;;5095593;28;20918;-76
2021/03/02 07:27:09;;;;;;;21.70;11.75;;;2.40;99.90;;;;;;5095088;28;20216;-75
2021/03/02 07:29:38;;;;;;;24.80;12.13;;;2.70;99.90;;;;;;5095399;28;20217;-77
2021/03/02 07:32:07;;;;;;;22.02;11.55;;;2.90;99.90;;;;;;5095304;28;20229;-76
2021/03/02 07:34:32;;;;;;;16.20;11.32;;;3.20;99.90;;;;;;5095089;28;20288;-74
2021/03/02 07:36:58;;;;;;;19.23;13.00;;;3.40;99.90;;;;;;5093510;28;20199;-76
2021/03/02 07:39:25;;;;;;;25.20;13.90;;;3.50;99.90;;;;;;5095101;28;20535;-76
2021/03/02 07:41:52;;;;;;;25.85;14.38;;;3.70;99.90;;;;;;5095280;28;20250;-75
2021/03/02 07:44:18;;;;;;;22.10;14.32;;;3.90;99.90;;;;;;5094972;28;20164;-75
2021/03/02 07:46:46;;;;;;;22.55;13.00;;;3.90;99.90;;;;;;5094912;28;20203;-75
2021/03/02 07:49:23;;;;;;;24.75;11.77;;;4.00;99.90;;;;;;5094484;28;20199;-76
2021/03/02 07:52:01;;;;;;;21.42;14.35;;;4.20;99.90;;;;;;5093964;28;20176;-76
2021/03/02 07:54:33;;;;;;;22.50;14.35;;;4.50;99.90;;;;;;5093291;28;20211;-76
2021/03/02 07:57:13;;;;;;;21.75;12.35;;;4.60;99.90;;;;;;5094278;28;20568;-76
2021/03/02 07:59:39;;;;;;;24.17;14.10;;;4.70;99.90;;;;;;5094517;28;20626;-76
2021/03/02 08:02:19;;;;;;;30.83;13.77;;;4.90;99.90;;;;;;5094013;28;20179;-75
2021/03/02 08:04:51;;;;;;;17.52;11.77;;;5.00;99.90;;;;;;5094333;28;20526;-76
2021/03/02 08:07:24;;;;;;;21.25;12.90;;;5.10;99.90;;;;;;5093539;28;20644;-76
2021/03/02 08:09:52;;;;;;;19.50;12.85;;;5.30;99.90;;;;;;5093989;28;20175;-76
2021/03/02 08:12:30;;;;;;;19.65;13.02;;;5.40;99.90;;;;;;5094354;28;20214;-75
2021/03/02 08:14:57;;;;;;;26.40;14.32;;;5.60;99.90;;;;;;5090822;28;20609;-76
2021/03/02 08:17:25;;;;;;;21.23;13.65;;;5.80;99.90;;;;;;5092582;28;20176;-76
2021/03/02 08:20:07;;;;;;;23.92;13.80;;;5.90;99.90;;;;;;5094324;28;20502;-75
2021/03/02 08:22:33;;;;;;;22.30;12.73;;;6.10;99.90;;;;;;5093599;28;20187;-75
2021/03/02 08:25:10;;;;;;;24.17;13.68;;;6.30;99.90;;;;;;5093868;28;20648;-75
2021/03/02 08:27:52;;;;;;;22.88;13.07;;;6.40;99.90;;;;;;5092269;28;20203;-75
2021/03/02 08:30:25;;;;;;;23.77;13.35;;;6.50;99.90;;;;;;5093615;28;20168;-75
2021/03/02 08:32:52;;;;;;;24.20;13.50;;;6.60;99.90;;;;;;5094371;28;20225;-76
2021/03/02 08:35:23;;;;;;;23.67;14.40;;;6.70;99.90;;;;;;5093422;28;20225;-75
2021/03/02 08:37:57;;;;;;;20.83;12.45;;;6.90;99.90;;;;;;5093015;28;20188;-76
2021/03/02 08:40:45;;;;;;;19.25;11.82;;;7.10;99.90;;;;;;5094154;28;20168;-76
2021/03/02 08:43:12;;;;;;;23.88;12.55;;;7.10;99.90;;;;;;5078571;28;20184;-76
2021/03/02 08:45:40;;;;;;;19.02;11.88;;;7.20;99.90;;;;;;5085700;28;20172;-76
2021/03/02 08:48:13;;;;;;;19.02;10.98;;;7.40;99.90;;;;;;5092142;28;20257;-77
2021/03/02 08:50:38;;;;;;;18.70;11.38;;;7.50;99.90;;;;;;5091577;28;20230;-76
2021/03/02 08:53:04;;;;;;;18.20;11.10;;;7.50;99.90;;;;;;5091858;28;20201;-76
2021/03/02 08:55:37;;;;;;;16.93;10.67;;;7.80;99.90;;;;;;5093254;28;20188;-73
2021/03/02 08:58:04;;;;;;;22.05;12.13;;;8.10;99.90;;;;;;5091901;28;20569;-74
2021/03/02 09:00:30;;;;;;;17.30;10.40;;;8.30;99.90;;;;;;5093588;28;20176;-76
2021/03/02 09:02:55;;;;;;;15.83;11.20;;;8.30;99.90;;;;;;5093278;28;20541;-77
2021/03/02 09:05:21;;;;;;;15.73;9.77;;;8.40;99.90;;;;;;5092663;28;20841;-75
2021/03/02 09:08:06;;;;;;;16.20;9.93;;;8.40;99.90;;;;;;5093139;28;20207;-77
2021/03/02 09:10:32;;;;;;;16.40;9.57;;;8.50;99.90;;;;;;5092565;28;20183;-75
2021/03/02 09:12:58;;;;;;;16.40;9.77;;;8.60;99.90;;;;;;5092960;28;20265;-75
2021/03/02 09:15:39;;;;;;;13.17;8.93;;;8.90;99.90;;;;;;5093183;28;20209;-76
2021/03/02 09:18:15;;;;;;;15.77;10.10;;;8.90;99.90;;;;;;5091967;28;20188;-76
2021/03/02 09:20:56;;;;;;;14.55;10.05;;;9.20;99.90;;;;;;5092958;28;20168;-75
2021/03/02 09:23:25;;;;;;;15.88;9.18;;;9.30;99.90;;;;;;5091154;28;20191;-76
2021/03/02 09:25:52;;;;;;;12.45;8.43;;;9.60;99.90;;;;;;5092142;28;20178;-76
2021/03/02 09:28:18;;;;;;;14.40;8.57;;;9.90;99.90;;;;;;5092700;28;20245;-75
2021/03/02 09:30:44;;;;;;;12.40;7.87;;;10.30;99.90;;;;;;5093048;28;20852;-74
2021/03/02 09:33:15;;;;;;;15.63;9.30;;;10.70;99.90;;;;;;5092096;28;20414;-76
2021/03/02 09:35:43;;;;;;;14.90;9.03;;;11.00;99.90;;;;;;5092988;28;20446;-75
2021/03/02 09:38:27;;;;;;;15.23;9.00;;;11.20;99.90;;;;;;5091972;28;20497;-75
2021/03/02 09:40:53;;;;;;;13.07;7.97;;;11.10;99.90;;;;;;5092786;28;20406;-76
2021/03/02 09:43:19;;;;;;;11.37;8.37;;;11.60;99.90;;;;;;5091623;28;20407;-76
2021/03/02 09:45:53;;;;;;;10.70;8.07;;;11.80;99.90;;;;;;5092219;28;20184;-76
2021/03/02 09:48:19;;;;;;;17.93;9.80;;;12.10;99.90;;;;;;5092516;28;20187;-75
2021/03/02 09:50:45;;;;;;;11.67;8.90;;;11.90;99.90;;;;;;5092438;28;20421;-75
2021/03/02 09:53:15;;;;;;;14.77;10.70;;;12.10;99.90;;;;;;5092023;28;20176;-76
2021/03/02 09:55:42;;;;;;;13.60;9.87;;;12.00;99.90;;;;;;5092591;28;20698;-74
2021/03/02 09:58:18;;;;;;;11.00;8.47;;;12.40;99.90;;;;;;5092017;28;21000;-75
2021/03/02 10:00:52;;;;;;;14.90;9.80;;;12.60;99.90;;;;;;5092026;28;20376;-77
2021/03/02 10:03:18;;;;;;;12.20;8.43;;;13.40;99.90;;;;;;5092714;28;20437;-76
2021/03/02 10:06:01;;;;;;;14.00;10.27;;;13.30;99.90;;;;;;5091949;28;20430;-75
2021/03/02 10:08:39;;;;;;;8.93;8.00;;;13.60;99.90;;;;;;5071614;28;20442;-74
2021/03/02 10:11:11;;;;;;;12.93;9.10;;;13.70;99.90;;;;;;5072303;28;20415;-75
2021/03/02 10:13:56;;;;;;;10.87;8.07;;;13.40;99.90;;;;;;5071859;28;20423;-76
2021/03/02 10:16:48;;;;;;;11.07;9.20;;;13.30;99.90;;;;;;5071599;28;20425;-77
2021/03/02 10:19:18;;;;;;;11.77;8.83;;;13.50;99.90;;;;;;5071529;28;20549;-76
2021/03/02 10:22:11;;;;;;;9.80;8.80;;;13.50;99.90;;;;;;5072035;28;20442;-76
2021/03/02 10:24:41;;;;;;;12.13;8.60;;;13.10;99.90;;;;;;5068541;28;20931;-75
2021/03/02 10:27:17;;;;;;;11.70;9.17;;;14.00;99.90;;;;;;5071277;28;20431;-74
2021/03/02 10:29:44;;;;;;;11.60;8.40;;;14.30;99.90;;;;;;5071298;28;20415;-74
2021/03/02 10:32:11;;;;;;;11.33;9.17;;;14.30;99.90;;;;;;5071933;28;20747;-76
2021/03/02 10:34:37;;;;;;;14.10;9.03;;;14.50;99.90;;;;;;5071037;28;21125;-76
2021/03/02 10:37:06;;;;;;;16.17;9.60;;;14.50;99.90;;;;;;5074707;28;20507;-75
2021/03/02 10:39:33;;;;;;;10.40;8.80;;;14.30;99.90;;;;;;5075857;28;20829;-76
2021/03/02 10:41:59;;;;;;;16.50;10.37;;;15.00;99.90;;;;;;5074923;28;20773;-76
2021/03/02 10:44:25;;;;;;;17.37;9.47;;;14.40;99.90;;;;;;5075617;28;20791;-76
2021/03/02 10:46:50;;;;;;;13.90;9.80;;;15.20;99.90;;;;;;5075705;28;20419;-76
2021/03/02 10:49:16;;;;;;;12.03;8.90;;;15.60;99.90;;;;;;5074735;28;20196;-75
2021/03/02 10:51:42;;;;;;;14.60;10.27;;;15.50;99.90;;;;;;5075443;28;20222;-74
2021/03/02 10:54:08;;;;;;;12.07;9.57;;;15.60;99.90;;;;;;5073806;28;20168;-76
2021/03/02 10:56:34;;;;;;;13.40;10.50;;;16.00;99.90;;;;;;5074634;28;20579;-77
2021/03/02 10:59:00;;;;;;;16.53;10.60;;;16.30;99.90;;;;;;5074861;28;20427;-76
2021/03/02 11:01:26;;;;;;;12.43;9.20;;;16.30;99.90;;;;;;5075427;28;20211;-75
2021/03/02 11:03:52;;;;;;;10.23;9.03;;;16.20;99.90;;;;;;5074602;28;20415;-75
2021/03/02 11:06:21;;;;;;;12.47;10.57;;;16.40;99.90;;;;;;5075042;28;20415;-74
2021/03/02 11:08:48;;;;;;;13.60;10.30;;;16.40;99.90;;;;;;5074639;28;20433;-75
2021/03/02 11:11:18;;;;;;;10.97;9.33;;;16.60;99.90;;;;;;5074523;28;20422;-74
2021/03/02 11:13:44;;;;;;;10.80;9.17;;;17.10;99.90;;;;;;5075325;28;20422;-76
2021/03/02 11:16:10;;;;;;;12.47;10.27;;;17.00;99.90;;;;;;5074289;28;20454;-77
2021/03/02 11:18:37;;;;;;;13.80;9.67;;;17.40;99.90;;;;;;5074305;28;20427;-75
2021/03/02 11:21:03;;;;;;;12.10;10.33;;;17.10;99.90;;;;;;5075079;28;20430;-76
2021/03/02 11:23:29;;;;;;;13.27;10.50;;;17.20;99.90;;;;;;5074357;28;20875;-75
2021/03/02 11:25:54;;;;;;;13.77;10.00;;;17.10;99.90;;;;;;5074210;28;20425;-75
2021/03/02 11:28:20;;;;;;;15.80;10.87;;;17.50;99.90;;;;;;5074867;28;20200;-76
2021/03/02 11:30:46;;;;;;;14.40;10.20;;;17.90;99.90;;;;;;5074313;28;20238;-75
2021/03/02 11:33:13;;;;;;;11.43;9.60;;;18.50;99.90;;;;;;5074610;28;20168;-74
2021/03/02 11:35:39;;;;;;;14.50;10.73;;;17.90;99.90;;;;;;5074923;28;20201;-77
2021/03/02 11:38:05;;;;;;;12.53;10.10;;;17.30;99.90;;;;;;5073489;28;20495;-76
2021/03/02 11:40:31;;;;;;;17.93;11.83;;;18.20;99.90;;;;;;5073072;28;20549;-75
2021/03/02 11:42:58;;;;;;;16.63;11.73;;;18.30;99.90;;;;;;5074744;28;20415;-75
2021/03/02 11:45:29;;;;;;;13.70;10.23;;;18.20;99.90;;;;;;5073745;28;20414;-76
2021/03/02 11:47:56;;;;;;;12.70;9.90;;;18.60;99.90;;;;;;5073792;28;20439;-76
2021/03/02 11:50:23;;;;;;;10.90;8.63;;;18.40;99.90;;;;;;5074493;28;20414;-78
2021/03/02 11:52:49;;;;;;;16.93;9.40;;;18.60;99.90;;;;;;5073835;28;20802;-75
2021/03/02 11:55:16;;;;;;;15.43;9.30;;;18.90;99.90;;;;;;5074188;28;20735;-76
2021/03/02 11:57:43;;;;;;;11.30;8.23;;;18.90;99.90;;;;;;5073807;28;20431;-75
2021/03/02 12:00:15;;;;;;;12.27;9.13;;;19.20;99.90;;;;;;5078650;28;20438;-76
2021/03/02 12:02:41;;;;;;;16.20;9.87;;;19.70;99.90;;;;;;5083295;28;20483;-75
2021/03/02 12:05:07;;;;;;;9.73;8.73;;;20.30;99.90;;;;;;5083482;28;20537;-76
2021/03/02 12:07:34;;;;;;;12.10;8.13;;;20.20;99.90;;;;;;5083234;28;20250;-76
2021/03/02 12:10:00;;;;;;;11.17;9.53;;;20.30;99.90;;;;;;5082735;28;20408;-76
2021/03/02 12:12:25;;;;;;;10.57;8.80;;;20.10;99.90;;;;;;5078024;28;20472;-76
2021/03/02 12:14:51;;;;;;;10.80;9.37;;;19.90;99.90;;;;;;5084112;28;20276;-73
2021/03/02 12:17:17;;;;;;;13.50;9.50;;;20.60;99.90;;;;;;5082157;28;20661;-75
2021/03/02 12:19:43;;;;;;;14.53;9.63;;;20.90;99.90;;;;;;5082599;28;20179;-75
2021/03/02 12:22:08;;;;;;;13.33;8.67;;;21.00;99.90;;;;;;5084122;28;20172;-75
2021/03/02 12:24:34;;;;;;;11.30;8.80;;;21.10;99.90;;;;;;5082429;28;20865;-76
2021/03/02 12:26:59;;;;;;;12.93;9.20;;;21.40;99.90;;;;;;5082468;28;20636;-75
2021/03/02 12:29:25;;;;;;;13.10;8.83;;;21.90;99.90;;;;;;5081533;28;20366;-74
2021/03/02 12:31:51;;;;;;;13.60;10.80;;;21.90;99.90;;;;;;5082963;28;20177;-75
2021/03/02 12:34:17;;;;;;;11.53;9.53;;;22.40;99.90;;;;;;5081557;28;20179;-75
2021/03/02 12:36:43;;;;;;;16.50;11.00;;;22.20;99.90;;;;;;5083817;28;20857;-76
2021/03/02 12:39:09;;;;;;;13.17;10.37;;;22.60;99.90;;;;;;5082502;28;20188;-75
2021/03/02 12:41:37;;;;;;;16.07;10.97;;;22.60;99.90;;;;;;5080054;28;20222;-74
2021/03/02 12:44:03;;;;;;;14.33;9.80;;;22.80;99.90;;;;;;5077316;28;20490;-75
2021/03/02 12:46:29;;;;;;;12.17;9.67;;;22.90;99.90;;;;;;5072916;28;20772;-74
2021/03/02 12:48:55;;;;;;;11.73;9.87;;;23.00;99.90;;;;;;5072535;28;20431;-75